Time;durP1;ratioP1;P1;durP2;ratioP2;P2;SDS_P1;SDS_P2;PMS_P1;PMS_P2;Temp;Humidity;BMP_temperature;BMP_pressure;BME280_temperature;BME280_humidity;BME280_pressure;Samples;Min_cycle;Max_cycle;Signal;HPM_P1;HPM_P2
2021/08/25 00:01:26;;;;;;;;;;;;;;;16.96;85.39;99582.09;5035652;28;822;-60
2021/08/25 00:03:54;;;;;;;;;;;;;;;16.92;85.63;99576.66;5035607;28;877;-60
2021/08/25 00:06:21;;;;;;;;;;;;;;;16.90;85.56;99572.78;5034280;28;851;-60
2021/08/25 00:08:48;;;;;;;;;;;;;;;16.86;85.69;99570.09;5035652;28;1886;-60
2021/08/25 00:11:14;;;;;;;;;;;;;;;16.82;85.77;99572.22;5035524;28;862;-60
2021/08/25 00:13:41;;;;;;;;;;;;;;;16.74;85.75;99562.50;5035379;28;811;-60
2021/08/25 00:16:07;;;;;;;;;;;;;;;16.70;85.87;99568.19;5035337;28;1363;-60
2021/08/25 00:18:35;;;;;;;;;;;;;;;16.67;86.01;99560.72;5035537;28;818;-60
2021/08/25 00:21:01;;;;;;;;;;;;;;;16.65;86.04;99559.63;5035221;28;878;-60
2021/08/25 00:23:27;;;;;;;;;;;;;;;16.61;86.10;99558.97;5035281;28;829;-60
2021/08/25 00:25:56;;;;;;;;;;;;;;;16.58;85.80;99559.84;5035057;28;814;-60
2021/08/25 00:28:21;;;;;;;;;;;;;;;16.56;86.03;99559.50;5035081;28;934;-60
2021/08/25 00:30:48;;;;;;;;;;;;;;;16.53;85.97;99553.59;5035178;28;1910;-59
2021/08/25 00:33:15;;;;;;;;;;;;;;;16.49;86.12;99558.56;5035012;28;858;-60
2021/08/25 00:35:42;;;;;;;;;;;;;;;16.47;86.19;99555.44;5035015;28;866;-60
2021/08/25 00:38:08;;;;;;;;;;;;;;;16.43;86.15;99551.97;5035054;28;815;-60
2021/08/25 00:40:35;;;;;;;;;;;;;;;16.41;86.28;99548.84;5034898;28;896;-60
2021/08/25 00:43:08;;;;;;;;;;;;;;;16.42;86.40;99550.41;5034879;28;877;-60
2021/08/25 00:45:52;;;;;;;;;;;;;;;16.44;86.58;99553.53;5034782;28;866;-60
2021/08/25 00:48:19;;;;;;;;;;;;;;;16.44;86.28;99553.53;5034757;28;850;-60
2021/08/25 00:50:52;;;;;;;;;;;;;;;16.44;86.42;99547.94;5034693;28;1886;-60
2021/08/25 00:53:22;;;;;;;;;;;;;;;16.44;86.39;99552.75;5034704;28;889;-60
2021/08/25 00:55:49;;;;;;;;;;;;;;;16.43;86.31;99551.16;5033373;28;1232;-60
2021/08/25 00:58:16;;;;;;;;;;;;;;;16.43;86.60;99553.97;5035300;28;834;-60
2021/08/25 01:01:04;;;;;;;;;;;;;;;16.47;86.35;99549.84;5034641;28;830;-60
2021/08/25 01:03:39;;;;;;;;;;;;;;;16.51;86.52;99544.94;5034392;28;1021;-60
2021/08/25 01:06:06;;;;;;;;;;;;;;;16.58;86.39;99548.69;5034429;28;878;-60
2021/08/25 01:08:33;;;;;;;;;;;;;;;16.64;86.15;99547.69;5034433;28;846;-60
2021/08/25 01:11:06;;;;;;;;;;;;;;;16.70;85.98;99548.66;5034193;28;1886;-60
2021/08/25 01:13:33;;;;;;;;;;;;;;;16.80;85.68;99543.19;5034268;28;838;-60
2021/08/25 01:15:59;;;;;;;;;;;;;;;16.90;85.67;99544.84;5034208;28;1223;-60
2021/08/25 01:18:25;;;;;;;;;;;;;;;16.97;85.19;99539.00;5034419;28;894;-60
2021/08/25 01:20:52;;;;;;;;;;;;;;;16.99;84.91;99536.53;5034409;28;851;-60
2021/08/25 01:23:20;;;;;;;;;;;;;;;16.97;84.85;99532.66;5034098;28;830;-60
2021/08/25 01:25:47;;;;;;;;;;;;;;;16.90;84.63;99525.31;5033975;28;791;-60
2021/08/25 01:28:17;;;;;;;;;;;;;;;16.82;84.51;99526.78;5033966;28;884;-60
2021/08/25 01:30:44;;;;;;;;;;;;;;;16.70;84.46;99517.19;5033940;28;1898;-59
2021/08/25 01:33:17;;;;;;;;;;;;;;;16.60;84.72;99521.91;5033951;28;866;-59
2021/08/25 01:35:44;;;;;;;;;;;;;;;16.52;84.88;99515.78;5034083;28;838;-60
2021/08/25 01:38:18;;;;;;;;;;;;;;;16.45;85.03;99518.84;5032755;28;1402;-60
2021/08/25 01:40:44;;;;;;;;;;;;;;;16.40;85.08;99522.19;5032430;28;1397;-60
2021/08/25 01:43:11;;;;;;;;;;;;;;;16.34;85.23;99521.19;5033707;28;898;-60
2021/08/25 01:45:38;;;;;;;;;;;;;;;16.29;85.33;99522.53;5033741;28;814;-60
2021/08/25 01:48:05;;;;;;;;;;;;;;;16.25;85.17;99510.72;5033692;28;802;-60
2021/08/25 01:50:32;;;;;;;;;;;;;;;16.21;85.44;99523.22;5033545;28;1894;-60
2021/08/25 01:52:58;;;;;;;;;;;;;;;16.19;85.72;99520.88;5033592;28;822;-60
2021/08/25 01:55:25;;;;;;;;;;;;;;;16.19;85.89;99515.28;5033596;28;885;-60
2021/08/25 01:57:52;;;;;;;;;;;;;;;16.25;86.05;99515.50;5033772;28;877;-60
2021/08/25 02:00:18;;;;;;;;;;;;;;;16.33;86.14;99509.25;5033519;28;1096;-60
2021/08/25 02:02:44;;;;;;;;;;;;;;;16.45;85.70;99512.44;5033357;28;922;-60
2021/08/25 02:05:10;;;;;;;;;;;;;;;16.48;85.26;99512.34;5033460;28;878;-60
2021/08/25 02:07:37;;;;;;;;;;;;;;;16.42;85.32;99510.56;5033305;28;802;-60
2021/08/25 02:10:04;;;;;;;;;;;;;;;16.30;85.35;99509.34;5033220;28;1947;-59
2021/08/25 02:12:31;;;;;;;;;;;;;;;16.21;85.48;99512.06;5033213;28;822;-60
2021/08/25 02:14:58;;;;;;;;;;;;;;;16.12;85.58;99499.56;5033296;28;936;-60
2021/08/25 02:17:24;;;;;;;;;;;;;;;16.05;85.77;99501.81;5032936;28;1378;-60
2021/08/25 02:19:51;;;;;;;;;;;;;;;15.98;85.75;99505.63;5033275;28;811;-60
2021/08/25 02:22:17;;;;;;;;;;;;;;;15.93;86.05;99501.38;5032681;28;830;-59
2021/08/25 02:24:45;;;;;;;;;;;;;;;15.92;86.30;99497.03;5031695;28;1311;-59
2021/08/25 02:27:11;;;;;;;;;;;;;;;15.93;86.66;99503.38;5033534;28;874;-59
2021/08/25 02:29:38;;;;;;;;;;;;;;;15.92;86.64;99510.19;5033088;28;1985;-59
2021/08/25 02:32:05;;;;;;;;;;;;;;;15.90;86.60;99504.28;5033331;28;783;-60
2021/08/25 02:34:30;;;;;;;;;;;;;;;15.90;86.87;99504.28;5032919;28;807;-60
2021/08/25 02:36:57;;;;;;;;;;;;;;;15.88;86.76;99506.75;5032725;28;811;-60
2021/08/25 02:39:24;;;;;;;;;;;;;;;15.87;86.89;99510.75;5032949;28;799;-60
2021/08/25 02:41:50;;;;;;;;;;;;;;;15.87;87.24;99510.75;5032681;28;850;-60
2021/08/25 02:44:16;;;;;;;;;;;;;;;15.87;87.49;99507.94;5032621;28;799;-59
2021/08/25 02:46:43;;;;;;;;;;;;;;;15.89;87.39;99509.06;5032449;28;875;-59
2021/08/25 02:49:10;;;;;;;;;;;;;;;15.89;87.67;99505.50;5032418;28;1894;-60
2021/08/25 02:51:37;;;;;;;;;;;;;;;15.87;87.64;99507.94;5032402;28;881;-60
2021/08/25 02:54:03;;;;;;;;;;;;;;;15.84;87.58;99506.84;5032334;28;807;-60
2021/08/25 02:56:30;;;;;;;;;;;;;;;15.84;87.83;99504.06;5032318;28;901;-60
2021/08/25 02:58:57;;;;;;;;;;;;;;;15.84;87.74;99512.41;5032369;28;909;-60
2021/08/25 03:01:27;;;;;;;;;;;;;;;15.86;88.09;99517.56;5032216;28;838;-60
2021/08/25 03:03:53;;;;;;;;;;;;;;;15.87;88.09;99514.31;5032262;28;839;-60
2021/08/25 03:06:20;;;;;;;;;;;;;;;15.84;87.83;99515.19;5032168;28;842;-59
2021/08/25 03:08:47;;;;;;;;;;;;;;;15.83;87.91;99516.44;5032134;28;839;-60
2021/08/25 03:11:13;;;;;;;;;;;;;;;15.79;87.70;99520.53;5032002;28;1906;-59
2021/08/25 03:13:40;;;;;;;;;;;;;;;15.75;87.85;99522.69;5032024;28;831;-60
2021/08/25 03:16:06;;;;;;;;;;;;;;;15.75;88.20;99522.69;5031959;28;1355;-60
2021/08/25 03:18:33;;;;;;;;;;;;;;;15.73;87.97;99516.78;5032042;28;803;-60
2021/08/25 03:20:59;;;;;;;;;;;;;;;15.70;88.08;99516.41;5031815;28;919;-60
2021/08/25 03:23:26;;;;;;;;;;;;;;;15.68;87.85;99521.63;5031839;28;854;-60
2021/08/25 03:25:53;;;;;;;;;;;;;;;15.69;88.16;99527.97;5031895;28;901;-60
2021/08/25 03:28:20;;;;;;;;;;;;;;;15.67;88.03;99522.06;5031853;28;985;-59
2021/08/25 03:30:46;;;;;;;;;;;;;;;15.64;87.99;99520.16;5031695;28;1968;-60
2021/08/25 03:33:13;;;;;;;;;;;;;;;15.64;88.00;99522.94;5031194;28;870;-59
2021/08/25 03:35:40;;;;;;;;;;;;;;;15.62;87.95;99512.28;5031532;28;866;-59
2021/08/25 03:38:07;;;;;;;;;;;;;;;15.58;87.87;99516.38;5031723;28;841;-59
2021/08/25 03:40:33;;;;;;;;;;;;;;;15.56;88.07;99518.84;5031850;28;858;-60
2021/08/25 03:43:00;;;;;;;;;;;;;;;15.57;88.12;99515.59;5031853;28;893;-59
2021/08/25 03:45:26;;;;;;;;;;;;;;;15.57;88.20;99510.00;5031727;28;866;-60
2021/08/25 03:47:53;;;;;;;;;;;;;;;15.58;88.19;99499.69;5031608;28;818;-60
2021/08/25 03:50:20;;;;;;;;;;;;;;;15.60;87.96;99505.59;5030204;28;1886;-60
2021/08/25 03:52:46;;;;;;;;;;;;;;;15.63;88.15;99502.69;5031499;28;947;-60
2021/08/25 03:55:13;;;;;;;;;;;;;;;15.68;88.18;99499.34;5031837;28;827;-60
2021/08/25 03:57:38;;;;;;;;;;;;;;;15.74;88.01;99493.25;5031782;28;866;-59
2021/08/25 04:00:05;;;;;;;;;;;;;;;15.78;88.12;99499.50;5031524;28;862;-59
2021/08/25 04:02:32;;;;;;;;;;;;;;;15.84;87.94;99500.50;5031413;28;901;-59
2021/08/25 04:04:58;;;;;;;;;;;;;;;15.91;87.83;99498.25;5031613;28;806;-59
2021/08/25 04:07:25;;;;;;;;;;;;;;;16.01;87.73;99503.94;5031446;28;909;-60
2021/08/25 04:09:52;;;;;;;;;;;;;;;16.10;87.53;99495.69;5031300;28;1878;-60
2021/08/25 04:12:18;;;;;;;;;;;;;;;16.20;87.60;99496.56;5031468;28;822;-60
2021/08/25 04:14:45;;;;;;;;;;;;;;;16.27;87.24;99505.47;5031272;28;984;-60
2021/08/25 04:17:12;;;;;;;;;;;;;;;16.35;86.90;99506.03;5030990;28;1470;-60
2021/08/25 04:19:38;;;;;;;;;;;;;;;16.43;86.82;99509.34;5031279;28;850;-60
2021/08/25 04:22:05;;;;;;;;;;;;;;;16.54;86.31;99506.97;5031194;28;842;-60
2021/08/25 04:24:32;;;;;;;;;;;;;;;16.65;86.29;99509.41;5031306;28;831;-60
2021/08/25 04:26:58;;;;;;;;;;;;;;;16.77;85.93;99514.16;5031296;28;806;-60
2021/08/25 04:29:25;;;;;;;;;;;;;;;16.91;85.72;99518.47;5031143;28;1914;-60
2021/08/25 04:31:51;;;;;;;;;;;;;;;17.07;85.37;99521.09;5031231;28;815;-60
2021/08/25 04:34:18;;;;;;;;;;;;;;;17.20;85.18;99523.03;5031206;28;940;-60
2021/08/25 04:36:45;;;;;;;;;;;;;;;17.33;84.77;99529.34;5031183;28;878;-60
2021/08/25 04:39:11;;;;;;;;;;;;;;;17.51;84.13;99532.25;5031175;28;865;-60
2021/08/25 04:41:38;;;;;;;;;;;;;;;17.72;83.32;99538.25;5031075;28;898;-60
2021/08/25 04:44:05;;;;;;;;;;;;;;;17.93;82.50;99534.66;5031140;28;935;-60
2021/08/25 04:46:33;;;;;;;;;;;;;;;18.13;81.77;99536.28;5034386;28;798;-60
2021/08/25 04:49:00;;;;;;;;;;;;;;;18.23;81.44;99542.69;5034704;28;1886;-60
2021/08/25 04:51:27;;;;;;;;;;;;;;;18.31;80.86;99547.53;5033331;28;2011;-59
2021/08/25 04:53:53;;;;;;;;;;;;;;;18.38;80.19;99540.88;5034715;28;850;-60
2021/08/25 04:56:19;;;;;;;;;;;;;;;18.44;79.78;99536.22;5034683;28;810;-60
2021/08/25 04:58:46;;;;;;;;;;;;;;;18.54;79.05;99535.00;5034659;28;888;-60
2021/08/25 05:01:13;;;;;;;;;;;;;;;18.65;78.26;99536.56;5034595;28;1001;-59
2021/08/25 05:03:39;;;;;;;;;;;;;;;18.71;77.82;99541.09;5034843;28;815;-60
2021/08/25 05:06:07;;;;;;;;;;;;;;;18.81;77.11;99543.94;5034573;28;845;-60
2021/08/25 05:08:33;;;;;;;;;;;;;;;18.88;76.94;99543.59;5034541;28;859;-59
2021/08/25 05:16:11;;;;;;;;;;;;;;;19.34;75.02;99540.78;5458435;22;1550;-59
2021/08/25 05:18:38;;;;;;;;;;;;;;;19.59;74.21;99537.63;5034459;28;861;-59
2021/08/25 05:21:05;;;;;;;;;;;;;;;19.88;73.38;99543.97;5034283;28;806;-60
2021/08/25 05:23:32;;;;;;;;;;;;;;;20.15;73.18;99541.03;5034208;28;873;-60
2021/08/25 05:25:59;;;;;;;;;;;;;;;20.60;71.39;99544.84;5034174;28;912;-60
2021/08/25 05:28:25;;;;;;;;;;;;;;;21.05;70.18;99552.66;5034077;28;807;-60
2021/08/25 05:30:51;;;;;;;;;;;;;;;21.28;68.95;99551.81;5034017;28;1973;-60
2021/08/25 05:33:18;;;;;;;;;;;;;;;21.26;68.68;99556.38;5033966;28;865;-60
2021/08/25 05:35:44;;;;;;;;;;;;;;;21.31;68.14;99556.47;5033999;28;806;-60
2021/08/25 05:38:11;;;;;;;;;;;;;;;21.46;68.15;99550.13;5033953;28;913;-60
2021/08/25 05:40:38;;;;;;;;;;;;;;;21.69;67.50;99554.88;5033901;28;807;-60
2021/08/25 05:43:05;;;;;;;;;;;;;;;22.09;66.50;99547.84;5033861;28;818;-60
2021/08/25 05:45:32;;;;;;;;;;;;;;;22.53;64.78;99549.81;5032371;28;909;-60
2021/08/25 05:47:58;;;;;;;;;;;;;;;23.12;64.00;99551.56;5033732;28;912;-60
2021/08/25 05:50:25;;;;;;;;;;;;;;;23.63;62.11;99552.06;5033662;28;1885;-60
2021/08/25 05:52:52;;;;;;;;;;;;;;;23.82;61.10;99549.69;5033727;28;866;-60
2021/08/25 05:55:19;;;;;;;;;;;;;;;23.93;61.31;99549.00;5033570;28;861;-60
2021/08/25 05:57:46;;;;;;;;;;;;;;;23.98;61.29;99545.44;5032700;28;794;-60
2021/08/25 06:00:16;;;;;;;;;;;;;;;24.20;61.21;99544.84;5033809;28;893;-60
2021/08/25 06:02:43;;;;;;;;;;;;;;;24.54;60.45;99536.59;5033477;28;881;-60
2021/08/25 06:05:11;;;;;;;;;;;;;;;24.96;58.95;99535.72;5033423;28;851;-60
2021/08/25 06:07:37;;;;;;;;;;;;;;;25.24;58.68;99532.22;5033540;28;894;-60
2021/08/25 06:10:05;;;;;;;;;;;;;;;25.87;57.22;99525.34;5033241;28;1886;-60
2021/08/25 06:12:30;;;;;;;;;;;;;;;26.91;54.60;99531.81;5033294;28;798;-60
2021/08/25 06:14:57;;;;;;;;;;;;;;;27.82;52.17;99527.09;5033184;28;983;-60
2021/08/25 06:17:23;;;;;;;;;;;;;;;28.59;50.69;99531.81;5032949;28;1278;-60
2021/08/25 06:19:50;;;;;;;;;;;;;;;29.14;49.48;99530.84;5031789;28;1279;-60
2021/08/25 06:22:17;;;;;;;;;;;;;;;29.59;48.68;99533.78;5033079;28;822;-60
2021/08/25 06:24:44;;;;;;;;;;;;;;;30.01;48.00;99537.00;5033234;28;826;-60
2021/08/25 06:27:10;;;;;;;;;;;;;;;30.39;46.94;99528.31;5033248;28;849;-60
2021/08/25 06:29:37;;;;;;;;;;;;;;;30.90;46.71;99536.63;5032802;28;1963;-60
2021/08/25 06:32:04;;;;;;;;;;;;;;;31.33;45.25;99531.78;5032855;28;806;-60
2021/08/25 06:34:31;;;;;;;;;;;;;;;31.42;44.63;99539.13;5032826;28;834;-60
2021/08/25 06:36:57;;;;;;;;;;;;;;;31.67;45.35;99543.19;5032883;28;862;-60
2021/08/25 06:39:24;;;;;;;;;;;;;;;31.70;44.86;99536.38;5032873;28;791;-61
2021/08/25 06:41:50;;;;;;;;;;;;;;;31.70;45.72;99541.31;5032735;28;811;-60
2021/08/25 06:44:17;;;;;;;;;;;;;;;31.82;45.26;99544.66;5032569;28;853;-60
2021/08/25 06:46:43;;;;;;;;;;;;;;;31.85;45.51;99535.72;5032628;28;970;-61
2021/08/25 06:49:10;;;;;;;;;;;;;;;32.02;45.20;99543.16;5032459;28;1886;-61
2021/08/25 06:51:36;;;;;;;;;;;;;;;32.29;44.07;99535.91;5032539;28;810;-61
2021/08/25 06:54:03;;;;;;;;;;;;;;;32.66;42.65;99536.72;5032595;28;857;-61
2021/08/25 06:56:30;;;;;;;;;;;;;;;32.59;42.52;99536.69;5032733;28;865;-61
2021/08/25 06:58:56;;;;;;;;;;;;;;;31.27;45.43;99529.06;5032556;28;913;-61
2021/08/25 07:01:25;;;;;;;;;;;;;;;30.12;48.14;99533.19;5032578;28;894;-61
2021/08/25 07:03:51;;;;;;;;;;;;;;;29.92;48.61;99529.66;5032361;28;869;-61
2021/08/25 07:06:21;;;;;;;;;;;;;;;29.33;49.76;99523.06;5032318;28;861;-61
2021/08/25 07:08:48;;;;;;;;;;;;;;;28.39;51.49;99533.00;5032087;28;877;-61
2021/08/25 07:11:15;;;;;;;;;;;;;;;27.77;53.11;99533.59;5032153;28;1890;-61
2021/08/25 07:13:41;;;;;;;;;;;;;;;28.96;50.78;99536.00;5032127;28;829;-62
2021/08/25 07:16:09;;;;;;;;;;;;;;;30.49;47.49;99534.31;5032012;28;1177;-62
2021/08/25 07:18:37;;;;;;;;;;;;;;;31.77;44.06;99537.00;5032095;28;865;-62
2021/08/25 07:21:04;;;;;;;;;;;;;;;31.56;43.28;99539.84;5032004;28;861;-61
2021/08/25 07:23:31;;;;;;;;;;;;;;;30.85;44.82;99539.56;5032013;28;856;-62
2021/08/25 07:25:58;;;;;;;;;;;;;;;31.37;43.99;99532.22;5031954;28;860;-61
2021/08/25 07:28:25;;;;;;;;;;;;;;;31.84;42.74;99533.44;5032055;28;822;-61
2021/08/25 07:30:51;;;;;;;;;;;;;;;31.79;43.08;99535.09;5031833;28;1985;-61
2021/08/25 07:33:20;;;;;;;;;;;;;;;32.19;41.50;99525.56;5032112;28;866;-62
2021/08/25 07:35:48;;;;;;;;;;;;;;;32.59;40.17;99534.59;5031861;28;849;-61
2021/08/25 07:38:16;;;;;;;;;;;;;;;32.79;39.90;99532.22;5031646;28;909;-61
2021/08/25 07:40:43;;;;;;;;;;;;;;;32.77;38.75;99529.91;5031817;28;799;-61
2021/08/25 07:43:10;;;;;;;;;;;;;;;32.88;38.54;99521.00;5031510;28;802;-61
2021/08/25 07:45:37;;;;;;;;;;;;;;;32.94;38.28;99529.41;5031699;28;1018;-61
2021/08/25 07:48:05;;;;;;;;;;;;;;;33.19;38.04;99535.44;5031612;28;895;-61
2021/08/25 07:50:32;;;;;;;;;;;;;;;33.55;36.82;99531.72;5031586;28;1922;-62
2021/08/25 07:52:58;;;;;;;;;;;;;;;33.77;35.77;99530.22;5031607;28;799;-61
2021/08/25 07:55:25;;;;;;;;;;;;;;;34.09;35.29;99528.88;5031634;28;818;-61
2021/08/25 07:57:52;;;;;;;;;;;;;;;33.93;35.24;99531.00;5031534;28;852;-62
2021/08/25 08:00:18;;;;;;;;;;;;;;;34.17;34.98;99521.06;5031449;28;857;-61
2021/08/25 08:02:45;;;;;;;;;;;;;;;34.53;33.97;99520.03;5031545;28;814;-62
2021/08/25 08:05:12;;;;;;;;;;;;;;;34.44;34.20;99520.63;5031432;28;845;-61
2021/08/25 08:07:39;;;;;;;;;;;;;;;34.60;34.07;99522.09;5031554;28;849;-61
2021/08/25 08:10:06;;;;;;;;;;;;;;;34.57;33.80;99518.28;5031492;28;1890;-61
2021/08/25 08:12:33;;;;;;;;;;;;;;;34.29;33.52;99522.19;5031362;28;893;-62
2021/08/25 08:14:59;;;;;;;;;;;;;;;34.16;33.89;99517.44;5031524;28;1271;-61
2021/08/25 08:17:25;;;;;;;;;;;;;;;34.50;33.71;99507.63;5031107;28;1440;-61
2021/08/25 08:19:52;;;;;;;;;;;;;;;34.65;32.64;99512.53;5032132;28;853;-62
2021/08/25 08:22:18;;;;;;;;;;;;;;;34.72;32.99;99508.16;5035255;28;850;-61
2021/08/25 08:24:45;;;;;;;;;;;;;;;34.42;33.95;99518.34;5035334;28;818;-61
2021/08/25 08:27:11;;;;;;;;;;;;;;;34.49;34.29;99517.56;5035270;28;822;-61
2021/08/25 08:29:38;;;;;;;;;;;;;;;34.58;33.89;99513.31;5035087;28;1910;-62
2021/08/25 08:32:08;;;;;;;;;;;;;;;34.27;32.64;99515.50;5035143;28;854;-62
2021/08/25 08:34:35;;;;;;;;;;;;;;;34.11;33.03;99503.25;5035063;28;842;-62
2021/08/25 08:37:01;;;;;;;;;;;;;;;34.06;33.65;99507.09;5035016;28;898;-62
2021/08/25 08:39:28;;;;;;;;;;;;;;;34.34;33.52;99501.13;5035310;28;865;-62
2021/08/25 08:41:54;;;;;;;;;;;;;;;34.61;32.66;99506.44;5034898;28;845;-62
2021/08/25 08:44:24;;;;;;;;;;;;;;;34.35;33.11;99502.69;5034958;28;905;-61
2021/08/25 08:46:51;;;;;;;;;;;;;;;33.93;32.75;99503.09;5034887;28;806;-62
2021/08/25 08:49:17;;;;;;;;;;;;;;;33.68;33.32;99508.63;5034679;28;1951;-62
2021/08/25 08:51:44;;;;;;;;;;;;;;;33.99;33.03;99505.75;5034773;28;881;-62
2021/08/25 08:54:12;;;;;;;;;;;;;;;34.04;30.88;99501.94;5034748;28;877;-62
2021/08/25 08:56:38;;;;;;;;;;;;;;;33.94;31.77;99498.13;5034747;28;846;-61
2021/08/25 08:59:05;;;;;;;;;;;;;;;34.11;31.29;99483.94;5034630;28;798;-62
2021/08/25 09:01:31;;;;;;;;;;;;;;;34.06;30.72;99489.91;5034630;28;901;-62
2021/08/25 09:03:58;;;;;;;;;;;;;;;33.79;31.54;99490.28;5034419;28;911;-61
2021/08/25 09:06:43;;;;;;;;;;;;;;;33.81;30.50;99492.59;5034458;28;899;-61
2021/08/25 09:09:10;;;;;;;;;;;;;;;33.76;31.02;99486.47;5034314;28;1939;-62
2021/08/25 09:11:50;;;;;;;;;;;;;;;33.75;30.92;99475.59;5034411;28;889;-62
2021/08/25 09:14:16;;;;;;;;;;;;;;;33.91;31.70;99474.25;5034389;28;849;-62
2021/08/25 09:16:44;;;;;;;;;;;;;;;33.88;31.13;99474.63;5034130;28;1221;-62
2021/08/25 09:19:16;;;;;;;;;;;;;;;33.97;31.31;99469.06;5034227;28;838;-62
2021/08/25 09:21:45;;;;;;;;;;;;;;;34.17;31.08;99463.72;5033445;28;782;-61
2021/08/25 09:24:13;;;;;;;;;;;;;;;34.34;29.13;99461.00;5034570;28;838;-63
2021/08/25 09:27:00;;;;;;;;;;;;;;;34.30;30.58;99454.13;5034167;28;787;-62
2021/08/25 09:29:26;;;;;;;;;;;;;;;33.39;31.52;99449.94;5023350;28;1994;-62
2021/08/25 09:31:53;;;;;;;;;;;;;;;32.59;33.13;99457.38;5033061;28;830;-61
2021/08/25 09:34:27;;;;;;;;;;;;;;;33.04;32.95;99450.25;5034251;28;818;-61
2021/08/25 09:37:10;;;;;;;;;;;;;;;33.53;32.57;99445.56;5033873;28;861;-61
2021/08/25 09:39:43;;;;;;;;;;;;;;;34.38;31.34;99451.25;5033961;28;845;-61
2021/08/25 09:42:11;;;;;;;;;;;;;;;34.24;31.04;99439.97;5034052;28;830;-63
2021/08/25 09:44:37;;;;;;;;;;;;;;;33.76;31.84;99440.63;5033832;28;915;-63
2021/08/25 09:47:04;;;;;;;;;;;;;;;33.72;31.72;99442.34;5032458;28;723;-63
2021/08/25 09:49:31;;;;;;;;;;;;;;;33.75;32.54;99441.94;5033582;28;1882;-62
2021/08/25 09:52:01;;;;;;;;;;;;;;;33.85;32.13;99436.41;5033715;28;794;-61
2021/08/25 09:54:27;;;;;;;;;;;;;;;33.70;31.67;99439.28;5033604;28;869;-62
2021/08/25 09:56:54;;;;;;;;;;;;;;;33.00;33.08;99435.56;5033631;28;854;-62
2021/08/25 09:59:22;;;;;;;;;;;;;;;33.38;32.61;99426.28;5033372;28;925;-64
2021/08/25 10:01:49;;;;;;;;;;;;;;;33.73;32.47;99423.81;5032212;28;1289;-63
2021/08/25 10:04:16;;;;;;;;;;;;;;;33.97;31.55;99417.47;5033384;28;798;-62
2021/08/25 10:06:43;;;;;;;;;;;;;;;33.79;32.10;99415.78;5033331;28;1126;-62
2021/08/25 10:09:11;;;;;;;;;;;;;;;32.79;33.49;99424.25;5033247;28;1951;-61
2021/08/25 10:11:42;;;;;;;;;;;;;;;31.76;34.79;99424.06;5033255;28;866;-62
2021/08/25 10:14:10;;;;;;;;;;;;;;;31.27;36.22;99426.28;5033248;28;917;-61
2021/08/25 10:16:38;;;;;;;;;;;;;;;31.47;36.38;99424.00;5032929;28;1358;-62
2021/08/25 10:19:23;;;;;;;;;;;;;;;32.09;34.58;99416.66;5033176;28;850;-62
2021/08/25 10:21:50;;;;;;;;;;;;;;;32.22;35.38;99413.72;5033258;28;873;-62
2021/08/25 10:24:18;;;;;;;;;;;;;;;33.00;34.06;99409.78;5033108;28;901;-62
2021/08/25 10:27:00;;;;;;;;;;;;;;;33.58;32.80;99412.34;5033034;28;798;-62
2021/08/25 10:29:28;;;;;;;;;;;;;;;33.08;33.16;99419.19;5032761;28;1977;-62
2021/08/25 10:31:57;;;;;;;;;;;;;;;31.77;35.00;99423.47;5031573;28;1239;-62
2021/08/25 10:34:25;;;;;;;;;;;;;;;30.95;37.13;99411.53;5032879;28;799;-62
2021/08/25 10:36:52;;;;;;;;;;;;;;;31.51;36.07;99401.59;5032772;28;856;-62
2021/08/25 10:39:35;;;;;;;;;;;;;;;32.17;35.51;99413.84;5033034;28;807;-61
2021/08/25 10:42:03;;;;;;;;;;;;;;;32.89;34.24;99407.28;5032605;28;918;-62
2021/08/25 10:44:39;;;;;;;;;;;;;;;33.03;34.09;99402.16;5032273;28;970;-62
2021/08/25 10:47:06;;;;;;;;;;;;;;;32.81;34.57;99403.66;5032630;28;814;-62
2021/08/25 10:49:33;;;;;;;;;;;;;;;33.13;33.60;99400.28;5032400;28;1890;-62
2021/08/25 10:52:27;;;;;;;;;;;;;;;33.13;32.87;99400.28;5033109;28;826;-61
2021/08/25 10:54:55;;;;;;;;;;;;;;;32.38;34.58;99400.22;5032727;28;932;-62
2021/08/25 10:57:24;;;;;;;;;;;;;;;32.19;34.91;99402.63;5032484;28;818;-62
2021/08/25 10:59:51;;;;;;;;;;;;;;;32.74;34.61;99403.06;5032363;28;869;-62
2021/08/25 11:02:18;;;;;;;;;;;;;;;32.93;33.86;99401.97;5032460;28;822;-62
2021/08/25 11:04:45;;;;;;;;;;;;;;;32.61;34.16;99397.50;5032284;28;869;-63
2021/08/25 11:07:13;;;;;;;;;;;;;;;33.00;34.47;99395.47;5032260;28;810;-62
2021/08/25 11:09:47;;;;;;;;;;;;;;;33.21;34.24;99392.47;5032010;28;1886;-62
2021/08/25 11:12:15;;;;;;;;;;;;;;;33.37;33.26;99390.38;5032115;28;906;-63
2021/08/25 11:14:45;;;;;;;;;;;;;;;33.61;32.45;99388.28;5032151;28;907;-62
2021/08/25 11:17:13;;;;;;;;;;;;;;;33.67;32.28;99388.84;5031866;28;1427;-63
2021/08/25 11:19:42;;;;;;;;;;;;;;;33.84;32.70;99380.44;5032341;28;786;-62
2021/08/25 11:22:24;;;;;;;;;;;;;;;34.14;31.61;99385.34;5032506;28;794;-62
2021/08/25 11:24:56;;;;;;;;;;;;;;;34.16;32.31;99374.06;5031775;28;1081;-62
2021/08/25 11:27:26;;;;;;;;;;;;;;;34.41;31.86;99366.88;5032289;28;857;-62
2021/08/25 11:30:04;;;;;;;;;;;;;;;34.62;31.69;99357.97;5031809;28;1967;-62
2021/08/25 11:32:31;;;;;;;;;;;;;;;34.30;31.62;99345.13;5031861;28;858;-62
2021/08/25 11:34:58;;;;;;;;;;;;;;;33.45;33.00;99350.28;5031849;28;881;-62
2021/08/25 11:37:24;;;;;;;;;;;;;;;33.41;33.41;99356.38;5031802;28;849;-62
2021/08/25 11:40:03;;;;;;;;;;;;;;;33.79;32.97;99361.34;5031694;28;880;-62
2021/08/25 11:42:34;;;;;;;;;;;;;;;34.34;31.99;99352.00;5031643;28;954;-62
2021/08/25 11:45:06;;;;;;;;;;;;;;;34.36;31.24;99351.44;5031637;28;878;-63
2021/08/25 11:47:33;;;;;;;;;;;;;;;34.24;31.41;99342.47;5031643;28;850;-62
2021/08/25 11:50:00;;;;;;;;;;;;;;;34.23;31.76;99352.44;5031583;28;1890;-62
2021/08/25 11:52:34;;;;;;;;;;;;;;;34.35;32.09;99344.94;5031648;28;834;-62
2021/08/25 11:55:04;;;;;;;;;;;;;;;34.41;31.92;99350.44;5031146;28;874;-63
2021/08/25 11:57:40;;;;;;;;;;;;;;;34.55;31.63;99345.22;5031619;28;778;-62
2021/08/25 12:00:07;;;;;;;;;;;;;;;34.80;31.17;99344.50;5031493;28;798;-62
2021/08/25 12:02:54;;;;;;;;;;;;;;;34.83;31.07;99346.97;5031480;28;790;-63
2021/08/25 12:05:22;;;;;;;;;;;;;;;34.50;31.50;99343.31;5031350;28;1544;-62
2021/08/25 12:08:02;;;;;;;;;;;;;;;34.48;31.64;99337.38;5031440;28;814;-62
2021/08/25 12:10:29;;;;;;;;;;;;;;;34.40;31.43;99336.66;5031362;28;1890;-64
2021/08/25 12:12:58;;;;;;;;;;;;;;;34.32;32.01;99336.72;5031384;28;837;-61
2021/08/25 12:15:43;;;;;;;;;;;;;;;34.10;31.92;99332.59;5031591;28;1047;-63
2021/08/25 12:18:10;;;;;;;;;;;;;;;33.99;32.33;99335.88;4991975;28;819;-62
2021/08/25 12:20:38;;;;;;;;;;;;;;;33.79;32.60;99347.00;4992055;28;834;-62
2021/08/25 12:23:06;;;;;;;;;;;;;;;33.91;32.97;99341.63;4991935;28;969;-63
2021/08/25 12:25:41;;;;;;;;;;;;;;;33.92;33.15;99346.78;4992046;28;823;-62
2021/08/25 12:28:11;;;;;;;;;;;;;;;34.05;32.35;99345.78;4991979;28;894;-62
2021/08/25 12:30:39;;;;;;;;;;;;;;;34.21;32.21;99345.75;4991841;28;1910;-62
2021/08/25 12:33:07;;;;;;;;;;;;;;;34.08;32.07;99347.50;4990714;28;1699;-63
2021/08/25 12:35:35;;;;;;;;;;;;;;;34.24;31.76;99347.47;4991874;28;799;-64
2021/08/25 12:38:02;;;;;;;;;;;;;;;34.22;31.79;99345.16;4991764;28;877;-63
2021/08/25 12:40:30;;;;;;;;;;;;;;;34.21;31.71;99342.91;4991816;28;799;-63
2021/08/25 12:42:58;;;;;;;;;;;;;;;34.12;31.69;99345.03;4991925;28;866;-62
2021/08/25 12:45:25;;;;;;;;;;;;;;;34.12;31.70;99332.81;5006987;28;1294;-62
2021/08/25 12:47:52;;;;;;;;;;;;;;;33.95;31.14;99334.16;4992381;28;862;-62
2021/08/25 12:50:22;;;;;;;;;;;;;;;33.72;31.71;99333.47;4992276;28;1955;-62
2021/08/25 12:52:50;;;;;;;;;;;;;;;33.79;31.44;99329.81;4991754;28;928;-62
2021/08/25 12:55:16;;;;;;;;;;;;;;;33.93;30.86;99333.22;4991810;28;866;-62
2021/08/25 12:57:43;;;;;;;;;;;;;;;33.73;30.96;99318.53;4991944;28;898;-62
2021/08/25 13:00:10;;;;;;;;;;;;;;;33.45;31.08;99318.78;4991762;28;878;-62
2021/08/25 13:02:41;;;;;;;;;;;;;;;33.40;30.73;99320.50;4991769;28;823;-63
2021/08/25 13:05:10;;;;;;;;;;;;;;;33.01;31.96;99327.53;4991640;28;826;-63
2021/08/25 13:07:37;;;;;;;;;;;;;;;32.92;31.98;99323.94;4995065;28;878;-62
2021/08/25 13:10:03;;;;;;;;;;;;;;;33.26;31.77;99322.81;4995125;28;1890;-63
2021/08/25 13:12:30;;;;;;;;;;;;;;;33.34;31.43;99323.56;4995038;28;837;-62
2021/08/25 13:14:57;;;;;;;;;;;;;;;33.32;31.80;99320.50;4995105;28;1017;-62